createdAt,value
2023-01-17T00:02:47.776Z,81.08
2023-01-17T00:08:08.929Z,80.92
2023-01-17T00:13:11.705Z,80.96
2023-01-17T00:18:14.309Z,81.08
2023-01-17T00:23:37.697Z,81.13
2023-01-17T00:28:42.085Z,81.19
2023-01-17T00:33:44.970Z,81.36
2023-01-17T00:38:47.525Z,81.44
2023-01-17T00:44:08.627Z,81.47
2023-01-17T00:49:29.797Z,81.45
2023-01-17T00:54:50.892Z,81.51
2023-01-17T01:00:12.019Z,81.48
2023-01-17T01:05:34.236Z,81.79
2023-01-17T01:10:55.576Z,81.53
2023-01-17T01:16:20.489Z,82.00
2023-01-17T01:21:41.939Z,82.29
2023-01-17T01:27:03.166Z,82.45
2023-01-17T01:32:24.754Z,82.83
2023-01-17T01:37:27.474Z,83.52
2023-01-17T01:42:30.177Z,83.93
2023-01-17T01:47:39.014Z,84.12
2023-01-17T01:52:45.094Z,84.93
2023-01-17T01:57:51.125Z,84.90
2023-01-17T02:02:55.061Z,84.88
2023-01-17T02:08:03.671Z,84.76
2023-01-17T02:13:07.483Z,85.70
2023-01-17T02:18:43.358Z,85.60
2023-01-17T02:23:58.021Z,86.25
2023-01-17T02:29:18.293Z,86.23
2023-01-17T02:34:48.124Z,86.25
2023-01-17T02:39:58.554Z,86.56
2023-01-17T02:45:02.871Z,86.91
2023-01-17T02:50:16.442Z,86.91
2023-01-17T02:55:28.422Z,86.49
2023-01-17T03:00:37.145Z,86.54
2023-01-17T03:05:52.270Z,86.39
2023-01-17T03:10:55.565Z,86.69
2023-01-17T03:15:58.344Z,86.70
2023-01-17T03:21:02.153Z,86.75
2023-01-17T03:26:04.904Z,86.49
2023-01-17T03:31:07.858Z,86.74
2023-01-17T03:36:12.305Z,86.92
2023-01-17T03:41:14.954Z,86.60
2023-01-17T03:46:25.919Z,86.93
2023-01-17T03:51:28.649Z,86.02
2023-01-17T03:56:31.380Z,85.84
2023-01-17T04:01:34.194Z,85.58
2023-01-17T04:06:37.028Z,85.78
2023-01-17T04:11:39.733Z,86.26
2023-01-17T04:16:42.566Z,86.12
2023-01-17T04:21:45.256Z,86.29
2023-01-17T04:26:48.141Z,85.55
2023-01-17T04:31:51.079Z,85.38
2023-01-17T04:36:53.779Z,85.75
2023-01-17T04:41:56.557Z,86.16
2023-01-17T04:46:59.273Z,85.06
2023-01-17T04:52:01.877Z,85.10
2023-01-17T04:57:04.698Z,85.03
2023-01-17T05:02:07.386Z,85.13
2023-01-17T05:07:10.207Z,85.32
2023-01-17T05:12:13.003Z,85.08
2023-01-17T05:17:15.802Z,84.71
2023-01-17T05:22:18.705Z,85.57
2023-01-17T05:27:21.324Z,85.32
2023-01-17T05:32:24.063Z,85.40
2023-01-17T05:37:26.665Z,84.96
2023-01-17T05:42:29.354Z,84.40
2023-01-17T05:47:31.980Z,83.92
2023-01-17T05:52:34.620Z,84.56
2023-01-17T05:57:37.284Z,84.10
2023-01-17T06:02:40.110Z,83.60
2023-01-17T06:07:46.740Z,84.20
2023-01-17T06:12:49.877Z,83.95
2023-01-17T06:17:52.717Z,83.81
2023-01-17T06:22:55.691Z,81.79
2023-01-17T06:27:58.520Z,81.08
2023-01-17T06:33:01.248Z,81.60
2023-01-17T06:38:04.168Z,80.79
2023-01-17T06:43:06.978Z,80.84
2023-01-17T06:48:09.661Z,81.84
2023-01-17T06:53:12.553Z,82.06
2023-01-17T06:58:15.332Z,81.22
2023-01-17T07:03:23.444Z,81.54
2023-01-17T07:08:26.094Z,81.93
2023-01-17T07:13:29.289Z,81.98
2023-01-17T07:18:34.022Z,82.25
2023-01-17T07:23:36.663Z,82.26
2023-01-17T07:28:39.563Z,82.45
2023-01-17T07:33:42.200Z,83.03
2023-01-17T07:38:47.113Z,83.11
2023-01-17T07:43:49.945Z,83.29
2023-01-17T07:48:53.567Z,83.82
2023-01-17T07:53:56.334Z,83.63
2023-01-17T07:58:59.101Z,83.14
2023-01-17T08:04:01.866Z,83.27
2023-01-17T08:09:04.561Z,82.75
2023-01-17T08:14:07.223Z,82.89
2023-01-17T08:19:10.623Z,82.67
2023-01-17T08:24:14.415Z,82.19
2023-01-17T08:29:17.053Z,82.41
2023-01-17T08:34:19.824Z,82.49
2023-01-17T08:39:22.586Z,82.93
2023-01-17T08:44:25.458Z,82.58
2023-01-17T08:49:31.081Z,82.19
2023-01-17T08:54:33.856Z,83.15
2023-01-17T08:59:36.527Z,82.35
2023-01-17T09:04:40.848Z,81.86
2023-01-17T09:09:43.589Z,81.94
2023-01-17T09:14:46.642Z,81.85
2023-01-17T09:19:49.308Z,82.35
2023-01-17T09:24:52.122Z,82.74
2023-01-17T09:29:54.765Z,82.63
2023-01-17T09:35:01.111Z,83.32
2023-01-17T09:40:04.396Z,82.82
2023-01-17T09:45:15.728Z,82.57
2023-01-17T09:50:36.173Z,82.85
2023-01-17T09:55:54.211Z,82.49
2023-01-17T10:01:21.528Z,83.04
2023-01-17T10:06:35.155Z,83.63
2023-01-17T10:12:14.523Z,83.44
2023-01-17T10:17:36.750Z,83.68
2023-01-17T10:22:44.217Z,83.16
2023-01-17T10:27:59.433Z,83.46
2023-01-17T10:33:22.733Z,84.07
2023-01-17T10:38:35.105Z,83.90
2023-01-17T10:43:47.831Z,83.92
2023-01-17T10:48:53.061Z,84.58
2023-01-17T10:54:22.774Z,83.99
2023-01-17T10:59:32.301Z,84.58
2023-01-17T11:04:39.712Z,84.89
2023-01-17T11:09:44.847Z,85.59
2023-01-17T11:15:07.379Z,85.35
2023-01-17T11:20:17.475Z,85.53
2023-01-17T11:25:22.752Z,85.47
2023-01-17T11:30:29.740Z,86.00
2023-01-17T11:35:35.151Z,86.29
2023-01-17T11:40:47.427Z,86.54
2023-01-17T11:46:18.593Z,86.92
2023-01-17T11:51:26.360Z,86.85
2023-01-17T11:56:33.738Z,87.33
2023-01-17T12:02:15.970Z,86.90
2023-01-17T12:07:28.707Z,87.00
2023-01-17T12:13:00.475Z,87.63
2023-01-17T12:18:28.834Z,88.07
2023-01-17T12:23:45.059Z,87.94
2023-01-17T12:29:26.098Z,87.74
2023-01-17T12:34:32.714Z,87.63
2023-01-17T12:39:41.612Z,88.34
2023-01-17T12:45:06.429Z,88.65
2023-01-17T12:50:36.919Z,88.79
2023-01-17T12:55:50.191Z,88.82
2023-01-17T13:01:01.377Z,88.97
2023-01-17T13:06:06.876Z,89.27
2023-01-17T13:11:16.709Z,88.67
2023-01-17T13:16:24.967Z,88.88
2023-01-17T13:21:30.454Z,89.08
2023-01-17T13:26:41.845Z,89.03
2023-01-17T13:32:07.714Z,88.65
2023-01-17T13:37:22.862Z,88.82
2023-01-17T13:42:46.775Z,89.69
2023-01-17T13:47:49.472Z,89.67
2023-01-17T13:52:58.380Z,89.71
2023-01-17T13:58:01.198Z,89.38
2023-01-17T14:03:03.986Z,89.33
2023-01-17T14:08:16.670Z,89.66
2023-01-17T14:13:34.547Z,89.38
2023-01-17T14:18:37.163Z,89.66
2023-01-17T14:23:56.310Z,89.30
2023-01-17T14:29:00.528Z,89.94
2023-01-17T14:34:13.771Z,89.82
2023-01-17T14:39:22.787Z,89.97
2023-01-17T14:44:25.448Z,90.39
2023-01-17T14:49:28.212Z,89.83
2023-01-17T14:54:30.836Z,89.85
2023-01-17T14:59:33.683Z,90.34
2023-01-17T15:04:40.037Z,90.29
2023-01-17T15:09:43.758Z,90.49
2023-01-17T15:14:47.069Z,90.90
2023-01-17T15:19:54.407Z,91.03
2023-01-17T15:24:57.539Z,91.21
2023-01-17T15:30:02.839Z,91.50
2023-01-17T15:35:08.343Z,91.55
2023-01-17T15:40:23.041Z,91.94
2023-01-17T15:45:29.695Z,91.69
2023-01-17T15:50:36.780Z,91.59
2023-01-17T15:55:40.414Z,92.42
2023-01-17T16:00:47.320Z,91.61
2023-01-17T16:05:50.922Z,91.65
2023-01-17T16:11:02.642Z,91.35
2023-01-17T16:16:13.641Z,91.95
2023-01-17T16:21:25.749Z,92.15
2023-01-17T16:26:29.514Z,92.48
2023-01-17T16:31:34.063Z,92.33
2023-01-17T16:36:37.242Z,91.80
2023-01-17T16:41:39.890Z,92.46
2023-01-17T16:46:42.723Z,92.24
2023-01-17T16:51:48.246Z,92.58
2023-01-17T16:56:51.162Z,92.25
2023-01-17T17:01:54.120Z,92.45
2023-01-17T17:06:56.910Z,92.82
2023-01-17T17:11:59.627Z,92.48
2023-01-17T17:17:02.339Z,93.08
2023-01-17T17:22:06.836Z,92.72
2023-01-17T17:27:09.475Z,92.15
2023-01-17T17:32:12.356Z,93.08
2023-01-17T17:37:17.877Z,92.83
2023-01-17T17:42:20.996Z,92.18
2023-01-17T17:47:24.436Z,93.01
2023-01-17T17:52:28.363Z,92.83
2023-01-17T17:57:31.121Z,93.26
2023-01-17T18:02:33.931Z,93.49
2023-01-17T18:07:36.889Z,93.56
2023-01-17T18:12:39.518Z,93.98
2023-01-17T18:17:42.178Z,94.03
2023-01-17T18:22:44.913Z,94.92
2023-01-17T18:27:47.496Z,94.97
2023-01-17T18:32:50.279Z,94.66
2023-01-17T18:37:53.113Z,95.56
2023-01-17T18:42:56.290Z,95.17
2023-01-17T18:47:59.962Z,94.62
2023-01-17T18:53:02.612Z,94.98
2023-01-17T18:58:05.231Z,94.88
2023-01-17T19:03:07.854Z,94.99
2023-01-17T19:08:10.829Z,95.69
2023-01-17T19:13:13.514Z,96.19
2023-01-17T19:18:16.226Z,96.08
2023-01-17T19:23:18.954Z,95.63
2023-01-17T19:28:22.295Z,96.38
2023-01-17T19:33:25.118Z,96.65
2023-01-17T19:38:28.489Z,96.47
2023-01-17T19:43:31.137Z,96.49
2023-01-17T19:48:33.765Z,96.49
2023-01-17T19:53:37.571Z,96.18
2023-01-17T19:58:40.256Z,96.20
2023-01-17T20:03:47.436Z,97.19
2023-01-17T20:08:50.250Z,96.84
2023-01-17T20:13:55.360Z,97.01
2023-01-17T20:18:59.449Z,97.50
2023-01-17T20:24:05.183Z,96.56
2023-01-17T20:29:12.347Z,96.44
2023-01-17T20:34:19.030Z,96.39
2023-01-17T20:39:21.649Z,96.16
2023-01-17T20:44:24.728Z,95.70
2023-01-17T20:49:27.499Z,96.01
2023-01-17T20:54:30.204Z,95.90
2023-01-17T20:59:32.917Z,95.75
2023-01-17T21:04:35.682Z,96.09
2023-01-17T21:09:38.370Z,96.06
2023-01-17T21:14:43.315Z,96.01
2023-01-17T21:19:45.978Z,96.04
2023-01-17T21:24:48.856Z,96.21
2023-01-17T21:29:53.347Z,96.25
2023-01-17T21:34:55.956Z,96.32
2023-01-17T21:40:00.523Z,96.19
2023-01-17T21:45:02.956Z,95.97
2023-01-17T21:50:05.968Z,96.06
2023-01-17T21:55:27.479Z,95.56
2023-01-17T22:00:30.268Z,95.33
2023-01-17T22:05:34.279Z,95.59
2023-01-17T22:10:44.819Z,95.32
2023-01-17T22:15:58.951Z,95.52
2023-01-17T22:21:08.176Z,94.87
2023-01-17T22:26:12.142Z,94.97
2023-01-17T22:31:26.226Z,95.15
2023-01-17T22:36:30.207Z,94.83
2023-01-17T22:41:35.063Z,94.08
2023-01-17T22:46:38.735Z,93.96
2023-01-17T22:51:41.514Z,93.98
2023-01-17T22:56:44.164Z,93.57
2023-01-17T23:01:46.863Z,93.45
2023-01-17T23:06:49.707Z,93.03
2023-01-17T23:11:54.450Z,92.58
2023-01-17T23:17:21.124Z,92.42
2023-01-17T23:22:27.227Z,92.08
2023-01-17T23:27:52.768Z,91.86
2023-01-17T23:32:58.013Z,91.49
2023-01-17T23:38:19.765Z,91.65
2023-01-17T23:43:25.370Z,90.95
2023-01-17T23:48:28.212Z,90.60
2023-01-17T23:53:30.977Z,90.52
2023-01-17T23:58:34.306Z,89.88
